.
WxDataArchive / Data Records for 2008-12-19
2008-12-18 December 2008 2008-12-20

Data Records for Friday, 19 December 2008

Time	Temp	Chill	HIndex	Humid	Dewpt	 Wind 	HiWind	WindDir	Rain 	Barom 
-----	----	-----	------	-----	-----	------	------	-------	-----	----- 
00:00	20.3	20.3	20.3	90	17.8	2	6	90	0.00	30.201 
00:05	20.3	20.3	20.3	90	17.8	2	6	90	0.00	30.196 
00:10	20.3	20.3	20.3	90	17.8	2	6	112	0.00	30.198 
00:15	20.3	20.3	20.3	90	17.8	2	7	112	0.00	30.186 
00:20	20.2	20.2	20.2	90	17.7	3	7	90	0.00	30.186 
00:25	20.2	20.2	20.2	90	17.7	1	3	112	0.00	30.184 
00:30	20.2	20.2	20.2	90	17.7	2	6	90	0.00	30.176 
00:35	20.2	20.2	20.2	90	17.7	1	5	112	0.00	30.172 
00:40	20.2	20.2	20.2	90	17.7	2	6	90	0.00	30.168 
00:45	20.2	20.2	20.2	90	17.7	1	5	135	0.00	30.169 
00:50	20.3	20.3	20.3	91	18.1	2	6	112	0.00	30.163 
00:55	20.3	20.3	20.3	91	18.1	2	5	112	0.00	30.153 
01:00	20.3	20.3	20.3	91	18.1	3	5	112	0.00	30.149 
01:05	20.3	20.3	20.3	91	18.1	2	6	90	0.00	30.148 
01:10	20.5	20.5	20.5	91	18.3	1	5	112	0.00	30.148 
01:15	20.5	20.5	20.5	91	18.3	2	4	112	0.00	30.142 
01:20	20.6	20.6	20.6	91	18.4	2	5	112	0.00	30.137 
01:25	20.6	20.6	20.6	91	18.4	2	4	112	0.00	30.134 
01:30	20.8	20.8	20.8	91	18.6	2	4	90	0.00	30.120 
01:35	20.8	20.8	20.8	91	18.6	2	4	112	0.00	30.113 
01:40	21.1	21.1	21.1	91	18.9	1	4	112	0.00	30.116 
01:45	21.4	21.4	21.4	92	19.4	1	6	112	0.00	30.105 
01:50	21.8	21.8	21.8	92	19.8	2	6	112	0.00	30.102 
01:55	22.1	22.1	22.1	92	20.1	1	7	90	0.00	30.102 
02:00	22.4	22.4	22.4	92	20.4	2	6	112	0.00	30.103 
02:05	22.5	22.5	22.5	92	20.5	2	5	112	0.00	30.113 
02:10	22.7	22.7	22.7	92	20.7	2	5	112	0.00	30.120 
02:15	22.9	22.9	22.9	92	20.9	2	6	90	0.00	30.117 
02:20	22.9	22.9	22.9	92	20.9	2	5	112	0.00	30.099 
02:25	22.9	22.9	22.9	92	20.9	2	6	112	0.00	30.093 
02:30	23.0	23.0	23.0	92	21.0	2	7	68	0.00	30.085 
02:35	23.3	23.3	23.3	92	21.3	2	6	90	0.00	30.088 
02:40	23.5	23.5	23.5	92	21.5	2	5	90	0.00	30.089 
02:45	23.9	23.9	23.9	92	21.9	2	5	112	0.00	30.083 
02:50	24.1	24.1	24.1	92	22.1	3	9	112	0.00	30.089 
02:55	24.4	24.4	24.4	92	22.4	3	8	112	0.00	30.076 
03:00	24.5	19.4	24.5	92	22.5	4	9	90	0.00	30.053 
03:05	24.8	24.8	24.8	93	23.1	3	8	90	0.00	30.044 
03:10	25.1	25.1	25.1	93	23.4	3	6	90	0.00	30.037 
03:15	25.4	20.5	25.4	93	23.7	4	10	90	0.00	30.027 
03:20	25.7	20.8	25.7	93	24.0	4	16	90	0.00	30.027 
03:25	26.1	21.3	26.1	93	24.4	4	7	112	0.00	30.020 
03:30	26.3	21.5	26.3	93	24.6	4	11	112	0.00	30.006 
03:35	26.4	19.6	26.4	93	24.7	6	12	112	0.00	29.998 
03:40	26.6	19.8	26.6	93	24.9	6	12	90	0.00	29.979 
03:45	26.6	19.0	26.6	93	24.9	7	13	90	0.00	29.956 
03:50	26.6	19.0	26.6	93	24.9	7	15	90	0.00	29.939 
03:55	26.6	19.8	26.6	93	24.9	6	12	112	0.00	29.943 
04:00	26.6	20.7	26.6	93	24.9	5	11	112	0.00	29.948 
04:05	26.6	20.7	26.6	93	24.9	5	13	112	0.00	29.948 
04:10	26.7	22.0	26.7	94	25.2	4	7	90	0.00	29.960 
04:15	26.9	22.2	26.9	94	25.4	4	9	90	0.00	29.965 
04:20	27.2	22.5	27.2	94	25.7	4	10	90	0.00	29.961 
04:25	27.2	22.5	27.2	94	25.7	4	10	90	0.00	29.958 
04:30	27.3	20.6	27.3	94	25.8	6	13	90	0.00	29.946 
04:35	27.5	22.9	27.5	94	26.0	4	9	90	0.00	29.951 
04:40	27.6	23.0	27.6	94	26.1	4	11	90	0.00	29.931 
04:45	27.6	21.9	27.6	94	26.1	5	15	90	0.00	29.898 
04:50	27.8	23.2	27.8	94	26.3	4	9	90	0.00	29.897 
04:55	27.9	22.3	27.9	94	26.4	5	10	112	0.00	29.897 
05:00	27.9	21.3	27.9	94	26.4	6	11	90	0.00	29.889 
05:05	27.9	23.3	27.9	94	26.4	4	10	135	0.00	29.881 
05:10	28.1	23.6	28.1	94	26.6	4	10	135	0.00	29.895 
05:15	28.2	28.2	28.2	94	26.7	0	0	---	0.00	29.893 
05:20	28.4	28.4	28.4	94	26.9	0	0	---	0.00	29.882 
05:25	28.5	28.5	28.5	94	27.0	0	0	---	0.00	29.872 
05:30	28.5	28.5	28.5	94	27.0	0	0	---	0.00	29.857 
05:35	28.7	28.7	28.7	94	27.2	0	0	---	0.00	29.842 
05:40	28.8	28.8	28.8	94	27.3	0	0	---	0.00	29.833 
05:45	28.8	28.8	28.8	94	27.3	0	0	---	0.00	29.835 
05:50	29.0	29.0	29.0	94	27.5	0	0	---	0.00	29.818 
05:55	29.1	29.1	29.1	94	27.6	0	0	---	0.00	29.810 
06:00	29.1	29.1	29.1	94	27.6	0	0	---	0.00	29.790 
06:05	29.1	29.1	29.1	94	27.6	0	0	---	0.00	29.771 
06:10	29.3	29.3	29.3	94	27.8	0	0	---	0.00	29.767 
06:15	29.4	29.4	29.4	94	27.9	0	0	---	0.00	29.776 
06:20	29.4	29.4	29.4	94	27.9	0	0	---	0.00	29.738 
06:25	29.4	29.4	29.4	94	27.9	0	0	---	0.00	29.722 
06:30	29.5	29.5	29.5	94	28.0	0	0	---	0.00	29.741 
06:35	29.4	29.4	29.4	94	27.9	0	0	---	0.00	29.729 
06:40	29.4	29.4	29.4	94	27.9	0	0	---	0.00	29.737 
06:45	29.5	29.5	29.5	94	28.0	0	0	---	0.00	29.739 
06:50	29.7	29.7	29.7	95	28.4	0	0	---	0.00	29.752 
06:55	29.8	29.8	29.8	95	28.5	0	0	---	0.00	29.766 
07:00	29.8	29.8	29.8	95	28.5	0	0	---	0.00	29.724 
07:05	30.0	30.0	30.0	95	28.7	0	0	---	0.00	29.731 
07:10	30.0	30.0	30.0	95	28.7	0	0	---	0.00	29.737 
07:15	30.1	30.1	30.1	95	28.8	0	0	---	0.00	29.735 
07:20	30.1	30.1	30.1	95	28.8	0	0	---	0.00	29.726 
07:25	30.1	30.1	30.1	95	28.8	0	0	---	0.00	29.733 
07:30	30.1	30.1	30.1	95	28.8	0	0	---	0.00	29.722 
07:35	30.1	30.1	30.1	95	28.8	0	0	---	0.00	29.708 
07:40	30.1	30.1	30.1	95	28.8	0	0	---	0.00	29.721 
07:45	30.3	30.3	30.3	95	29.0	0	0	---	0.00	29.723 
07:50	30.3	30.3	30.3	95	29.0	0	0	---	0.00	29.721 
07:55	30.4	30.4	30.4	95	29.1	0	0	---	0.00	29.694 
08:00	30.4	30.4	30.4	95	29.1	0	0	---	0.00	29.706 
08:05	30.4	30.4	30.4	95	29.1	0	0	---	0.00	29.706 
08:10	30.4	30.4	30.4	95	29.1	0	0	---	0.00	29.694 
08:15	30.4	30.4	30.4	95	29.1	0	0	---	0.00	29.703 
08:20	30.4	30.4	30.4	95	29.1	0	0	---	0.00	29.708 
08:25	30.4	30.4	30.4	95	29.1	0	0	---	0.00	29.693 
08:30	30.4	30.4	30.4	95	29.1	0	0	---	0.00	29.674 
08:35	30.4	30.4	30.4	95	29.1	0	0	---	0.00	29.672 
08:40	30.6	30.6	30.6	95	29.3	0	0	---	0.00	29.657 
08:45	30.7	30.7	30.7	95	29.4	0	0	---	0.00	29.641 
08:50	30.7	30.7	30.7	95	29.4	0	0	---	0.00	29.632 
08:55	30.7	30.7	30.7	95	29.4	0	0	---	0.00	29.664 
09:00	30.7	30.7	30.7	95	29.4	0	0	---	0.00	29.656 
09:05	30.9	30.9	30.9	95	29.6	0	0	---	0.00	29.643 
09:10	30.9	30.9	30.9	95	29.6	0	0	---	0.00	29.653 
09:15	31.0	31.0	31.0	95	29.7	0	0	---	0.00	29.614 
09:20	31.0	31.0	31.0	95	29.7	0	0	---	0.00	29.658 
09:25	31.0	31.0	31.0	95	29.7	0	0	---	0.00	29.639 
09:30	31.0	31.0	31.0	95	29.7	0	0	---	0.00	29.649 
09:35	31.0	31.0	31.0	95	29.7	0	0	---	0.00	29.639 
09:40	31.2	31.2	31.2	95	29.9	0	0	---	0.00	29.642 
09:45	31.2	31.2	31.2	95	29.9	0	0	---	0.00	29.641 
09:50	31.2	31.2	31.2	95	29.9	0	0	---	0.00	29.641 
09:55	31.2	31.2	31.2	95	29.9	0	0	---	0.00	29.641 
10:00	31.2	31.2	31.2	95	29.9	0	0	---	0.00	29.640 
10:05	31.3	31.3	31.3	95	30.0	0	0	---	0.00	29.640 
10:10	31.3	31.3	31.3	95	30.0	0	0	---	0.00	29.640 
10:15	31.3	31.3	31.3	95	30.0	0	0	---	0.00	29.656 
10:20	31.3	31.3	31.3	95	30.0	0	0	---	0.00	29.656 
10:25	31.5	31.5	31.5	95	30.2	0	0	---	0.00	29.656 
10:30	31.5	31.5	31.5	95	30.2	0	0	---	0.00	29.654 
10:35	31.5	31.5	31.5	95	30.2	0	0	---	0.00	29.654 
10:40	31.6	31.6	31.6	95	30.3	0	0	---	0.00	29.652 
10:45	31.6	31.6	31.6	95	30.3	0	0	---	0.00	29.655 
10:50	31.6	31.6	31.6	95	30.3	0	0	---	0.00	29.652 
10:55	31.6	31.6	31.6	95	30.3	0	0	---	0.00	29.654 
11:00	31.8	31.8	31.8	95	30.5	0	0	---	0.00	29.647 
11:05	31.8	31.8	31.8	95	30.5	0	0	---	0.00	29.642 
11:10	31.8	31.8	31.8	95	30.5	0	0	---	0.00	29.636 
11:15	31.6	31.6	31.6	95	30.3	0	0	---	0.00	29.630 
11:20	31.6	31.6	31.6	95	30.3	0	0	---	0.00	29.630 
11:25	31.8	31.8	31.8	95	30.5	0	0	---	0.00	29.628 
11:30	31.8	31.8	31.8	95	30.5	0	0	---	0.00	29.624 
11:35	31.8	31.8	31.8	96	30.8	0	0	---	0.00	29.623 
11:40	31.9	31.9	31.9	96	30.9	0	0	---	0.00	29.624 
11:45	31.9	31.9	31.9	96	30.9	0	0	---	0.00	29.625 
11:50	31.9	31.9	31.9	95	30.6	0	0	---	0.00	29.623 
11:55	31.9	31.9	31.9	95	30.6	0	0	---	0.00	29.630 
12:00	32.1	32.1	32.1	95	30.8	0	0	---	0.00	29.624 
12:05	32.1	32.1	32.1	96	31.1	0	0	---	0.00	29.629 
12:10	32.2	32.2	32.2	95	30.9	0	0	---	0.00	29.630 
12:15	32.2	32.2	32.2	96	31.2	0	0	---	0.00	29.638 
12:20	32.2	32.2	32.2	96	31.2	0	0	---	0.00	29.636 
12:25	32.2	32.2	32.2	96	31.2	0	0	---	0.00	29.636 
12:30	32.2	32.2	32.2	96	31.2	0	0	---	0.00	29.636 
12:35	32.2	32.2	32.2	96	31.2	0	0	---	0.00	29.649 
12:40	32.2	32.2	32.2	96	31.2	0	0	---	0.00	29.639 
12:45	32.2	32.2	32.2	96	31.2	0	0	---	0.00	29.641 
12:50	32.2	32.2	32.2	96	31.2	0	0	---	0.00	29.640 
12:55	32.4	32.4	32.4	96	31.4	0	0	---	0.00	29.643 
13:00	32.5	32.5	32.5	96	31.5	0	0	---	0.01	29.639 
13:05	32.7	32.7	32.7	96	31.7	0	0	---	0.06	29.637 
13:10	32.8	32.8	32.8	96	31.8	0	0	---	0.02	29.648 
13:15	32.8	32.8	32.8	96	31.8	0	0	---	0.02	29.652 
13:20	32.8	32.8	32.8	96	31.8	0	0	---	0.02	29.654 
13:25	32.8	32.8	32.8	96	31.8	0	0	---	0.02	29.667 
13:30	32.7	32.7	32.7	96	31.7	0	0	---	0.02	29.671 
13:35	32.7	32.7	32.7	96	31.7	0	0	---	0.01	29.677 
13:40	32.7	32.7	32.7	96	31.7	0	0	---	0.01	29.680 
13:45	32.5	32.5	32.5	96	31.5	0	0	---	0.01	29.694 
13:50	32.5	32.5	32.5	96	31.5	0	0	---	0.01	29.698 
13:55	32.5	32.5	32.5	96	31.5	0	0	---	0.01	29.700 
14:00	32.4	32.4	32.4	96	31.4	0	0	---	0.01	29.701 
14:05	32.5	32.5	32.5	96	31.5	0	0	---	0.02	29.696 
14:10	32.5	32.5	32.5	96	31.5	0	0	---	0.00	29.701 
14:15	32.5	32.5	32.5	96	31.5	0	0	---	0.01	29.712 
14:20	32.5	32.5	32.5	96	31.5	0	0	---	0.01	29.724 
14:25	32.5	32.5	32.5	96	31.5	0	0	---	0.01	29.728 
14:30	32.5	32.5	32.5	96	31.5	0	0	---	0.01	29.727 
14:35	32.5	32.5	32.5	96	31.5	0	0	---	0.01	29.729 
14:40	32.5	32.5	32.5	96	31.5	0	0	---	0.01	29.723 
14:45	32.5	32.5	32.5	96	31.5	0	0	---	0.01	29.743 
14:50	32.5	32.5	32.5	96	31.5	0	0	---	0.01	29.743 
14:55	32.4	32.4	32.4	96	31.4	0	0	---	0.00	29.760 
15:00	32.1	32.1	32.1	96	31.1	0	0	---	0.01	29.773 
15:05	31.9	31.9	31.9	96	30.9	0	0	---	0.01	29.776 
15:10	31.6	31.6	31.6	95	30.3	0	0	---	0.00	29.780 
15:15	31.5	31.5	31.5	96	30.5	0	0	---	0.01	29.778 
15:20	31.5	31.5	31.5	96	30.5	0	0	---	0.00	29.784 
15:25	31.3	31.3	31.3	95	30.0	0	0	---	0.01	29.785 
15:30	31.3	31.3	31.3	96	30.3	0	0	---	0.00	29.790 
15:35	31.3	31.3	31.3	96	30.3	0	0	---	0.01	29.793 
15:40	31.2	31.2	31.2	96	30.2	0	0	---	0.00	29.803 
15:45	31.0	31.0	31.0	95	29.7	0	0	---	0.01	29.808 
15:50	31.0	31.0	31.0	95	29.7	0	0	---	0.00	29.813 
15:55	30.9	30.9	30.9	95	29.6	0	0	---	0.00	29.821 
16:00	30.7	30.7	30.7	95	29.4	0	0	---	0.01	29.826 
16:05	30.7	30.7	30.7	95	29.4	0	0	---	0.00	29.834 
16:10	30.4	30.4	30.4	95	29.1	0	0	---	0.00	29.839 
16:15	30.1	30.1	30.1	95	28.8	0	0	---	0.01	29.852 
16:20	30.0	30.0	30.0	95	28.7	0	0	---	0.00	29.852 
16:25	29.7	29.7	29.7	95	28.4	0	0	---	0.00	29.853 
16:30	29.4	29.4	29.4	95	28.1	0	0	---	0.00	29.859 
16:35	29.1	29.1	29.1	94	27.6	0	0	---	0.00	29.870 
16:40	29.0	29.0	29.0	95	27.8	0	0	---	0.01	29.873 
16:45	28.8	28.8	28.8	94	27.3	0	0	---	0.00	29.885 
16:50	28.7	28.7	28.7	94	27.2	0	0	---	0.00	29.889 
16:55	28.5	28.5	28.5	94	27.0	0	0	---	0.00	29.894 
17:00	28.5	28.5	28.5	94	27.0	0	0	---	0.00	29.902 
17:05	28.5	28.5	28.5	94	27.0	0	0	---	0.00	29.902 
17:10	28.4	28.4	28.4	94	26.9	0	0	---	0.00	29.904 
17:15	28.4	28.4	28.4	94	26.9	0	0	---	0.00	29.912 
17:20	28.4	28.4	28.4	94	26.9	0	0	---	0.00	29.918 
17:25	28.2	28.2	28.2	94	26.7	0	0	---	0.00	29.925 
17:30	28.1	28.1	28.1	94	26.6	0	0	---	0.00	29.931 
17:35	28.1	28.1	28.1	94	26.6	0	0	---	0.00	29.934 
17:40	28.1	28.1	28.1	93	26.3	0	0	---	0.00	29.931 
17:45	27.9	27.9	27.9	93	26.1	0	0	---	0.00	29.932 
17:50	27.9	27.9	27.9	93	26.1	0	0	---	0.00	29.934 
17:55	27.9	27.9	27.9	93	26.1	0	0	---	0.00	29.935 
18:00	28.1	28.1	28.1	93	26.3	0	0	---	0.00	29.939 
18:05	27.9	27.9	27.9	93	26.1	0	0	---	0.00	29.943 
18:10	27.9	27.9	27.9	93	26.1	0	0	---	0.00	29.944 
18:15	27.9	27.9	27.9	93	26.1	0	0	---	0.00	29.943 
18:20	28.1	28.1	28.1	93	26.3	0	0	---	0.00	29.949 
18:25	27.9	27.9	27.9	93	26.1	0	0	---	0.00	29.949 
18:30	28.1	28.1	28.1	93	26.3	0	0	---	0.00	29.951 
18:35	28.1	28.1	28.1	93	26.3	0	0	---	0.00	29.959 
18:40	27.9	27.9	27.9	92	25.9	0	0	---	0.00	29.967 
18:45	27.9	27.9	27.9	92	25.9	0	0	---	0.00	29.971 
18:50	27.9	27.9	27.9	92	25.9	0	0	---	0.00	29.979 
18:55	27.9	27.9	27.9	92	25.9	0	0	---	0.00	29.982 
19:00	27.8	27.8	27.8	92	25.8	0	0	---	0.00	29.983 
19:05	27.8	27.8	27.8	92	25.8	0	0	---	0.00	29.983 
19:10	27.8	27.8	27.8	92	25.8	0	0	---	0.00	29.982 
19:15	27.8	27.8	27.8	92	25.8	0	0	---	0.00	29.983 
19:20	27.9	27.9	27.9	92	25.9	0	0	---	0.00	29.983 
19:25	27.9	27.9	27.9	92	25.9	0	0	---	0.00	29.984 
19:30	27.9	27.9	27.9	92	25.9	0	0	---	0.00	29.989 
19:35	27.9	27.9	27.9	92	25.9	0	0	---	0.00	29.993 
19:40	27.8	27.8	27.8	92	25.8	0	0	---	0.00	29.995 
19:45	27.9	27.9	27.9	92	25.9	0	0	---	0.00	29.998 
19:50	27.9	27.9	27.9	92	25.9	0	0	---	0.00	30.003 
19:55	27.8	27.8	27.8	92	25.8	0	0	---	0.00	30.002 
20:00	27.8	27.8	27.8	92	25.8	0	0	---	0.00	30.004 
20:05	27.8	27.8	27.8	92	25.8	0	0	---	0.00	30.011 
20:10	27.8	27.8	27.8	92	25.8	0	0	---	0.00	30.014 
20:15	27.8	27.8	27.8	92	25.8	0	0	---	0.00	30.023 
20:20	27.8	27.8	27.8	92	25.8	0	0	---	0.00	30.027 
20:25	27.8	27.8	27.8	92	25.8	0	0	---	0.00	30.027 
20:30	27.8	27.8	27.8	92	25.8	0	0	---	0.00	30.028 
20:35	27.8	27.8	27.8	92	25.8	0	0	---	0.00	30.032 
20:40	27.8	27.8	27.8	92	25.8	0	0	---	0.00	30.030 
20:45	27.8	27.8	27.8	92	25.8	0	0	---	0.00	30.028 
20:50	27.8	27.8	27.8	92	25.8	0	0	---	0.00	30.027 
20:55	27.8	27.8	27.8	92	25.8	0	0	---	0.00	30.027 
21:00	27.9	27.9	27.9	92	25.9	0	0	---	0.00	30.027 
21:05	27.9	27.9	27.9	92	25.9	0	0	---	0.00	30.027 
21:10	27.8	27.8	27.8	92	25.8	0	0	---	0.00	30.028 
21:15	27.8	27.8	27.8	92	25.8	0	0	---	0.00	30.033 
21:20	27.8	27.8	27.8	92	25.8	0	0	---	0.00	30.038 
21:25	27.8	27.8	27.8	92	25.8	0	0	---	0.00	30.036 
21:30	27.8	27.8	27.8	92	25.8	0	0	---	0.00	30.029 
21:35	27.8	27.8	27.8	92	25.8	0	0	---	0.00	30.029 
21:40	27.8	27.8	27.8	91	25.5	0	0	---	0.00	30.044 
21:45	27.5	27.5	27.5	91	25.2	0	0	---	0.00	30.054 
21:50	27.2	27.2	27.2	90	24.7	0	0	---	0.00	30.053 
21:55	26.9	26.9	26.9	90	24.4	0	0	---	0.00	30.053 
22:00	26.6	26.6	26.6	90	24.1	0	0	---	0.00	30.047 
22:05	26.6	26.6	26.6	90	24.1	0	0	---	0.00	30.044 
22:10	26.3	26.3	26.3	89	23.5	0	0	---	0.00	30.045 
22:15	26.3	26.3	26.3	89	23.5	0	0	---	0.00	30.051 
22:20	26.1	26.1	26.1	89	23.3	0	0	---	0.00	30.056 
22:25	26.1	26.1	26.1	89	23.3	0	0	---	0.00	30.058 
22:30	26.0	26.0	26.0	89	23.2	0	0	---	0.00	30.059 
22:35	26.0	26.0	26.0	89	23.2	0	0	---	0.00	30.059 
22:40	26.0	26.0	26.0	89	23.2	0	0	---	0.00	30.060 
22:45	26.0	26.0	26.0	89	23.2	0	0	---	0.00	30.065 
22:50	26.0	26.0	26.0	89	23.2	0	0	---	0.00	30.063 
22:55	25.8	25.8	25.8	89	23.0	0	0	---	0.00	30.062 
23:00	25.8	25.8	25.8	89	23.0	0	0	---	0.00	30.065 
23:05	25.8	25.8	25.8	89	23.0	0	0	---	0.00	30.061 
23:10	25.7	25.7	25.7	89	22.9	0	0	---	0.00	30.060 
23:15	25.6	25.6	25.6	89	22.8	0	0	---	0.00	30.071 
23:20	25.6	25.6	25.6	89	22.8	0	0	---	0.00	30.065 
23:25	25.6	25.6	25.6	89	22.8	0	0	---	0.00	30.063 
23:30	25.4	25.4	25.4	89	22.6	0	0	---	0.00	30.070 
23:35	25.4	25.4	25.4	89	22.6	0	0	---	0.00	30.069 
23:40	25.4	25.4	25.4	89	22.6	0	0	---	0.00	30.072 
23:45	25.4	25.4	25.4	89	22.6	0	0	---	0.00	30.075 
23:50	25.3	25.3	25.3	89	22.5	0	0	---	0.00	30.076 
23:55	25.3	25.3	25.3	89	22.5	0	0	---	0.00	30.078 

CoCoRaHS
IN-AL-39
A2 Web Hosting
Creative Commons License
GoDaddy
search engine by freefind advanced

loaded 2018-11-12 15:48:28 • last modified 2010-11-18 10:43:29
Privacy PolicyDisclaimer
• wx.awcolley.com is powered by PmWiki v.2002016 •
• all content (unless otherwise noted) © 2018 A W Colley